sensor_id;sensor_type;location;lat;lon;timestamp;temperature;humidity
2873;DHT22;1444;49.166;7.312;2022-08-01T00:00:36;23.90;76.40
2873;DHT22;1444;49.166;7.312;2022-08-01T00:03:03;23.90;76.20
2873;DHT22;1444;49.166;7.312;2022-08-01T00:05:32;23.80;76.50
2873;DHT22;1444;49.166;7.312;2022-08-01T00:07:58;23.70;76.40
2873;DHT22;1444;49.166;7.312;2022-08-01T00:10:26;23.80;76.60
2873;DHT22;1444;49.166;7.312;2022-08-01T00:12:52;23.70;77.40
2873;DHT22;1444;49.166;7.312;2022-08-01T00:15:19;23.70;77.00
2873;DHT22;1444;49.166;7.312;2022-08-01T00:17:46;23.70;77.10
2873;DHT22;1444;49.166;7.312;2022-08-01T00:20:15;23.60;77.30
2873;DHT22;1444;49.166;7.312;2022-08-01T00:22:43;23.60;76.60
2873;DHT22;1444;49.166;7.312;2022-08-01T00:25:10;23.40;77.60
2873;DHT22;1444;49.166;7.312;2022-08-01T00:27:36;23.40;77.40
2873;DHT22;1444;49.166;7.312;2022-08-01T00:30:04;23.30;77.20
2873;DHT22;1444;49.166;7.312;2022-08-01T00:32:31;23.30;78.00
2873;DHT22;1444;49.166;7.312;2022-08-01T00:34:58;23.30;78.00
2873;DHT22;1444;49.166;7.312;2022-08-01T00:37:25;23.20;78.70
2873;DHT22;1444;49.166;7.312;2022-08-01T00:39:53;23.10;78.50
2873;DHT22;1444;49.166;7.312;2022-08-01T00:42:20;22.90;79.00
2873;DHT22;1444;49.166;7.312;2022-08-01T00:44:46;22.70;79.00
2873;DHT22;1444;49.166;7.312;2022-08-01T00:47:13;22.60;79.30
2873;DHT22;1444;49.166;7.312;2022-08-01T00:49:40;22.40;79.60
2873;DHT22;1444;49.166;7.312;2022-08-01T00:52:08;22.40;80.00
2873;DHT22;1444;49.166;7.312;2022-08-01T00:54:35;22.20;80.60
2873;DHT22;1444;49.166;7.312;2022-08-01T00:57:03;22.00;80.50
2873;DHT22;1444;49.166;7.312;2022-08-01T00:59:30;22.00;80.70
2873;DHT22;1444;49.166;7.312;2022-08-01T01:01:57;21.90;80.80
2873;DHT22;1444;49.166;7.312;2022-08-01T01:04:23;21.60;81.70
2873;DHT22;1444;49.166;7.312;2022-08-01T01:06:57;21.40;82.10
2873;DHT22;1444;49.166;7.312;2022-08-01T01:09:33;21.10;82.90
2873;DHT22;1444;49.166;7.312;2022-08-01T01:12:15;21.00;83.00
2873;DHT22;1444;49.166;7.312;2022-08-01T01:14:50;20.80;83.70
2873;DHT22;1444;49.166;7.312;2022-08-01T01:17:28;20.70;84.00
2873;DHT22;1444;49.166;7.312;2022-08-01T01:19:59;20.60;84.30
2873;DHT22;1444;49.166;7.312;2022-08-01T01:22:36;20.60;85.10
2873;DHT22;1444;49.166;7.312;2022-08-01T01:25:25;20.60;84.80
2873;DHT22;1444;49.166;7.312;2022-08-01T01:28:04;20.70;84.90
2873;DHT22;1444;49.166;7.312;2022-08-01T01:30:37;20.80;83.60
2873;DHT22;1444;49.166;7.312;2022-08-01T01:33:06;20.80;83.80
2873;DHT22;1444;49.166;7.312;2022-08-01T01:35:37;20.70;83.30
2873;DHT22;1444;49.166;7.312;2022-08-01T01:38:08;20.70;83.30
2873;DHT22;1444;49.166;7.312;2022-08-01T01:40:36;20.70;83.30
2873;DHT22;1444;49.166;7.312;2022-08-01T01:43:03;20.60;83.20
2873;DHT22;1444;49.166;7.312;2022-08-01T01:45:31;20.60;82.80
2873;DHT22;1444;49.166;7.312;2022-08-01T01:48:01;20.60;83.40
2873;DHT22;1444;49.166;7.312;2022-08-01T01:50:28;20.60;84.60
2873;DHT22;1444;49.166;7.312;2022-08-01T01:52:56;20.60;84.70
2873;DHT22;1444;49.166;7.312;2022-08-01T01:55:24;20.60;83.80
2873;DHT22;1444;49.166;7.312;2022-08-01T01:57:52;20.60;82.90
2873;DHT22;1444;49.166;7.312;2022-08-01T02:00:20;20.40;83.70
2873;DHT22;1444;49.166;7.312;2022-08-01T02:02:48;20.40;85.00
2873;DHT22;1444;49.166;7.312;2022-08-01T02:05:16;20.10;88.20
2873;DHT22;1444;49.166;7.312;2022-08-01T02:07:44;20.00;88.20
2873;DHT22;1444;49.166;7.312;2022-08-01T02:10:12;20.00;88.10
2873;DHT22;1444;49.166;7.312;2022-08-01T02:12:42;19.80;88.60
2873;DHT22;1444;49.166;7.312;2022-08-01T02:15:11;19.90;87.80
2873;DHT22;1444;49.166;7.312;2022-08-01T02:17:41;19.90;87.60
2873;DHT22;1444;49.166;7.312;2022-08-01T02:20:10;20.00;86.80
2873;DHT22;1444;49.166;7.312;2022-08-01T02:22:42;20.00;87.40
2873;DHT22;1444;49.166;7.312;2022-08-01T02:25:13;20.00;87.50
2873;DHT22;1444;49.166;7.312;2022-08-01T02:27:47;19.80;87.10
2873;DHT22;1444;49.166;7.312;2022-08-01T02:30:17;19.60;89.00
2873;DHT22;1444;49.166;7.312;2022-08-01T02:32:46;19.50;88.90
2873;DHT22;1444;49.166;7.312;2022-08-01T02:35:19;19.40;88.50
2873;DHT22;1444;49.166;7.312;2022-08-01T02:37:48;19.20;89.30
2873;DHT22;1444;49.166;7.312;2022-08-01T02:40:16;19.00;90.00
2873;DHT22;1444;49.166;7.312;2022-08-01T02:42:51;18.90;90.20
2873;DHT22;1444;49.166;7.312;2022-08-01T02:45:21;18.90;90.40
2873;DHT22;1444;49.166;7.312;2022-08-01T02:47:50;18.80;90.80
2873;DHT22;1444;49.166;7.312;2022-08-01T02:50:18;18.70;91.60
2873;DHT22;1444;49.166;7.312;2022-08-01T02:52:49;18.70;91.60
2873;DHT22;1444;49.166;7.312;2022-08-01T02:55:18;18.50;91.90
2873;DHT22;1444;49.166;7.312;2022-08-01T02:57:46;18.50;92.00
2873;DHT22;1444;49.166;7.312;2022-08-01T03:00:14;18.60;91.70
2873;DHT22;1444;49.166;7.312;2022-08-01T03:02:42;18.70;91.70
2873;DHT22;1444;49.166;7.312;2022-08-01T03:05:11;18.80;91.20
2873;DHT22;1444;49.166;7.312;2022-08-01T03:07:39;18.80;91.50
2873;DHT22;1444;49.166;7.312;2022-08-01T03:10:08;18.70;91.30
2873;DHT22;1444;49.166;7.312;2022-08-01T03:12:37;18.70;92.10
2873;DHT22;1444;49.166;7.312;2022-08-01T03:15:06;18.50;92.30
2873;DHT22;1444;49.166;7.312;2022-08-01T03:17:36;18.40;92.70
2873;DHT22;1444;49.166;7.312;2022-08-01T03:20:05;18.50;91.90
2873;DHT22;1444;49.166;7.312;2022-08-01T03:22:34;18.50;92.10
2873;DHT22;1444;49.166;7.312;2022-08-01T03:25:02;18.60;91.90
2873;DHT22;1444;49.166;7.312;2022-08-01T03:27:30;18.50;92.10
2873;DHT22;1444;49.166;7.312;2022-08-01T03:29:58;18.50;92.20
2873;DHT22;1444;49.166;7.312;2022-08-01T03:32:27;18.40;92.30
2873;DHT22;1444;49.166;7.312;2022-08-01T03:34:54;18.50;91.70
2873;DHT22;1444;49.166;7.312;2022-08-01T03:37:24;18.40;91.40
2873;DHT22;1444;49.166;7.312;2022-08-01T03:39:55;18.40;93.10
2873;DHT22;1444;49.166;7.312;2022-08-01T03:42:28;18.40;93.30
2873;DHT22;1444;49.166;7.312;2022-08-01T03:45:02;18.40;93.40
2873;DHT22;1444;49.166;7.312;2022-08-01T03:47:31;18.60;92.60
2873;DHT22;1444;49.166;7.312;2022-08-01T03:50:00;18.70;91.20
2873;DHT22;1444;49.166;7.312;2022-08-01T03:52:30;18.70;91.40
2873;DHT22;1444;49.166;7.312;2022-08-01T03:54:59;18.60;91.50
2873;DHT22;1444;49.166;7.312;2022-08-01T03:57:28;18.40;91.80
2873;DHT22;1444;49.166;7.312;2022-08-01T03:59:55;18.30;91.80
2873;DHT22;1444;49.166;7.312;2022-08-01T04:02:25;18.20;92.10
2873;DHT22;1444;49.166;7.312;2022-08-01T04:04:53;18.00;92.50
2873;DHT22;1444;49.166;7.312;2022-08-01T04:07:22;17.90;94.10
2873;DHT22;1444;49.166;7.312;2022-08-01T04:09:49;17.90;94.50
2873;DHT22;1444;49.166;7.312;2022-08-01T04:12:16;18.10;94.00
2873;DHT22;1444;49.166;7.312;2022-08-01T04:14:42;18.20;93.70
2873;DHT22;1444;49.166;7.312;2022-08-01T04:17:09;18.30;93.90
2873;DHT22;1444;49.166;7.312;2022-08-01T04:19:37;18.40;94.00
2873;DHT22;1444;49.166;7.312;2022-08-01T04:22:04;18.50;93.60
2873;DHT22;1444;49.166;7.312;2022-08-01T04:24:32;18.50;93.40
2873;DHT22;1444;49.166;7.312;2022-08-01T04:27:01;18.50;93.80
2873;DHT22;1444;49.166;7.312;2022-08-01T04:29:30;18.50;93.80
2873;DHT22;1444;49.166;7.312;2022-08-01T04:31:59;18.50;94.10
2873;DHT22;1444;49.166;7.312;2022-08-01T04:34:28;18.60;93.90
2873;DHT22;1444;49.166;7.312;2022-08-01T04:37:00;18.70;94.10
2873;DHT22;1444;49.166;7.312;2022-08-01T04:39:28;18.80;94.30
2873;DHT22;1444;49.166;7.312;2022-08-01T04:41:57;18.80;94.50
2873;DHT22;1444;49.166;7.312;2022-08-01T04:44:25;18.90;94.80
2873;DHT22;1444;49.166;7.312;2022-08-01T04:46:54;19.00;94.50
2873;DHT22;1444;49.166;7.312;2022-08-01T04:49:22;19.10;94.30
2873;DHT22;1444;49.166;7.312;2022-08-01T04:51:50;19.10;94.50
2873;DHT22;1444;49.166;7.312;2022-08-01T04:54:19;19.30;94.40
2873;DHT22;1444;49.166;7.312;2022-08-01T04:56:46;19.30;94.30
2873;DHT22;1444;49.166;7.312;2022-08-01T04:59:13;19.40;94.60
2873;DHT22;1444;49.166;7.312;2022-08-01T05:01:57;19.40;94.60
2873;DHT22;1444;49.166;7.312;2022-08-01T05:04:24;19.40;94.70
2873;DHT22;1444;49.166;7.312;2022-08-01T05:06:51;19.50;94.60
2873;DHT22;1444;49.166;7.312;2022-08-01T05:09:19;19.50;94.50
2873;DHT22;1444;49.166;7.312;2022-08-01T05:11:45;19.60;94.80
2873;DHT22;1444;49.166;7.312;2022-08-01T05:14:12;19.80;94.40
2873;DHT22;1444;49.166;7.312;2022-08-01T05:16:39;19.80;94.70
2873;DHT22;1444;49.166;7.312;2022-08-01T05:19:07;19.90;95.20
2873;DHT22;1444;49.166;7.312;2022-08-01T05:21:34;20.00;95.00
2873;DHT22;1444;49.166;7.312;2022-08-01T05:24:01;20.20;94.00
2873;DHT22;1444;49.166;7.312;2022-08-01T05:26:29;20.40;94.20
2873;DHT22;1444;49.166;7.312;2022-08-01T05:28:56;20.40;94.70
2873;DHT22;1444;49.166;7.312;2022-08-01T05:31:23;20.50;93.80
2873;DHT22;1444;49.166;7.312;2022-08-01T05:33:51;20.50;94.00
2873;DHT22;1444;49.166;7.312;2022-08-01T05:36:17;20.70;94.30
2873;DHT22;1444;49.166;7.312;2022-08-01T05:38:44;20.80;94.30
2873;DHT22;1444;49.166;7.312;2022-08-01T05:41:11;20.80;94.50
2873;DHT22;1444;49.166;7.312;2022-08-01T05:43:39;21.00;93.90
2873;DHT22;1444;49.166;7.312;2022-08-01T05:46:06;21.00;94.00
2873;DHT22;1444;49.166;7.312;2022-08-01T05:48:33;21.00;94.10
2873;DHT22;1444;49.166;7.312;2022-08-01T05:50:59;21.20;93.60
2873;DHT22;1444;49.166;7.312;2022-08-01T05:53:26;21.20;93.50
2873;DHT22;1444;49.166;7.312;2022-08-01T05:55:53;21.30;93.50
2873;DHT22;1444;49.166;7.312;2022-08-01T05:58:19;21.40;93.30
2873;DHT22;1444;49.166;7.312;2022-08-01T06:00:48;21.40;93.40
2873;DHT22;1444;49.166;7.312;2022-08-01T06:03:14;21.50;93.50
2873;DHT22;1444;49.166;7.312;2022-08-01T06:05:41;21.50;93.00
2873;DHT22;1444;49.166;7.312;2022-08-01T06:08:08;21.50;93.30
2873;DHT22;1444;49.166;7.312;2022-08-01T06:10:34;21.60;92.90
2873;DHT22;1444;49.166;7.312;2022-08-01T06:13:01;21.60;93.10
2873;DHT22;1444;49.166;7.312;2022-08-01T06:15:28;21.60;93.20
2873;DHT22;1444;49.166;7.312;2022-08-01T06:17:57;21.70;92.90
2873;DHT22;1444;49.166;7.312;2022-08-01T06:20:23;21.70;92.90
2873;DHT22;1444;49.166;7.312;2022-08-01T06:22:50;21.80;93.00
2873;DHT22;1444;49.166;7.312;2022-08-01T06:25:17;21.80;93.20
2873;DHT22;1444;49.166;7.312;2022-08-01T06:27:44;21.90;93.30
2873;DHT22;1444;49.166;7.312;2022-08-01T06:30:11;21.80;92.70
2873;DHT22;1444;49.166;7.312;2022-08-01T06:32:38;21.90;92.90
2873;DHT22;1444;49.166;7.312;2022-08-01T06:35:07;21.80;93.10
2873;DHT22;1444;49.166;7.312;2022-08-01T06:37:33;21.90;93.00
2873;DHT22;1444;49.166;7.312;2022-08-01T06:40:00;21.90;93.00
2873;DHT22;1444;49.166;7.312;2022-08-01T06:42:27;22.00;92.70
2873;DHT22;1444;49.166;7.312;2022-08-01T06:44:57;22.00;92.70
2873;DHT22;1444;49.166;7.312;2022-08-01T06:47:23;22.10;93.00
2873;DHT22;1444;49.166;7.312;2022-08-01T06:49:50;22.10;92.70
2873;DHT22;1444;49.166;7.312;2022-08-01T06:52:18;22.10;92.20
2873;DHT22;1444;49.166;7.312;2022-08-01T06:54:45;22.10;92.50
2873;DHT22;1444;49.166;7.312;2022-08-01T06:57:11;22.10;92.30
2873;DHT22;1444;49.166;7.312;2022-08-01T06:59:38;22.10;92.50
2873;DHT22;1444;49.166;7.312;2022-08-01T07:02:05;22.20;92.90
2873;DHT22;1444;49.166;7.312;2022-08-01T07:04:33;22.30;91.90
2873;DHT22;1444;49.166;7.312;2022-08-01T07:07:00;22.30;92.20
2873;DHT22;1444;49.166;7.312;2022-08-01T07:09:28;22.30;92.20
2873;DHT22;1444;49.166;7.312;2022-08-01T07:11:54;22.60;91.80
2873;DHT22;1444;49.166;7.312;2022-08-01T07:14:23;22.70;91.70
2873;DHT22;1444;49.166;7.312;2022-08-01T07:16:50;22.80;91.40
2873;DHT22;1444;49.166;7.312;2022-08-01T07:19:17;22.90;91.00
2873;DHT22;1444;49.166;7.312;2022-08-01T07:21:44;23.10;91.30
2873;DHT22;1444;49.166;7.312;2022-08-01T07:24:12;23.50;90.40
2873;DHT22;1444;49.166;7.312;2022-08-01T07:26:41;23.90;89.20
2873;DHT22;1444;49.166;7.312;2022-08-01T07:29:08;23.80;90.00
2873;DHT22;1444;49.166;7.312;2022-08-01T07:31:35;24.20;89.10
2873;DHT22;1444;49.166;7.312;2022-08-01T07:34:01;24.50;88.20
2873;DHT22;1444;49.166;7.312;2022-08-01T07:36:28;24.70;86.40
2873;DHT22;1444;49.166;7.312;2022-08-01T07:38:55;24.70;85.40
2873;DHT22;1444;49.166;7.312;2022-08-01T07:41:22;24.60;85.20
2873;DHT22;1444;49.166;7.312;2022-08-01T07:43:50;24.60;85.10
2873;DHT22;1444;49.166;7.312;2022-08-01T07:46:17;24.70;84.80
2873;DHT22;1444;49.166;7.312;2022-08-01T07:48:44;24.70;85.50
2873;DHT22;1444;49.166;7.312;2022-08-01T07:51:10;25.10;84.30
2873;DHT22;1444;49.166;7.312;2022-08-01T07:53:37;25.30;83.70
2873;DHT22;1444;49.166;7.312;2022-08-01T07:56:04;25.30;82.00
2873;DHT22;1444;49.166;7.312;2022-08-01T07:58:31;25.30;82.60
2873;DHT22;1444;49.166;7.312;2022-08-01T08:00:59;25.30;81.40
2873;DHT22;1444;49.166;7.312;2022-08-01T08:03:26;25.30;82.00
2873;DHT22;1444;49.166;7.312;2022-08-01T08:05:53;25.90;82.20
2873;DHT22;1444;49.166;7.312;2022-08-01T08:08:20;26.60;79.80
2873;DHT22;1444;49.166;7.312;2022-08-01T08:10:46;26.70;78.40
2873;DHT22;1444;49.166;7.312;2022-08-01T08:13:13;26.90;75.60
2873;DHT22;1444;49.166;7.312;2022-08-01T08:15:40;27.10;76.60
2873;DHT22;1444;49.166;7.312;2022-08-01T08:18:08;27.10;75.90
2873;DHT22;1444;49.166;7.312;2022-08-01T08:20:34;27.00;75.10
2873;DHT22;1444;49.166;7.312;2022-08-01T08:23:01;27.00;75.90
2873;DHT22;1444;49.166;7.312;2022-08-01T08:25:48;26.60;75.20
2873;DHT22;1444;49.166;7.312;2022-08-01T08:28:15;26.40;77.10
2873;DHT22;1444;49.166;7.312;2022-08-01T08:30:41;26.30;77.60
2873;DHT22;1444;49.166;7.312;2022-08-01T08:33:09;26.30;77.10
2873;DHT22;1444;49.166;7.312;2022-08-01T08:35:38;26.40;77.70
2873;DHT22;1444;49.166;7.312;2022-08-01T08:38:05;26.60;77.40
2873;DHT22;1444;49.166;7.312;2022-08-01T08:40:35;26.60;77.90
2873;DHT22;1444;49.166;7.312;2022-08-01T08:43:04;26.90;77.30
2873;DHT22;1444;49.166;7.312;2022-08-01T08:45:31;26.90;76.50
2873;DHT22;1444;49.166;7.312;2022-08-01T08:47:58;26.90;77.30
2873;DHT22;1444;49.166;7.312;2022-08-01T08:50:27;26.80;76.70
2873;DHT22;1444;49.166;7.312;2022-08-01T08:52:55;26.80;77.00
2873;DHT22;1444;49.166;7.312;2022-08-01T08:55:22;26.70;77.50
2873;DHT22;1444;49.166;7.312;2022-08-01T08:57:50;26.80;76.90
2873;DHT22;1444;49.166;7.312;2022-08-01T09:00:18;27.00;76.50
2873;DHT22;1444;49.166;7.312;2022-08-01T09:02:46;27.00;76.70
2873;DHT22;1444;49.166;7.312;2022-08-01T09:05:14;26.90;76.60
2873;DHT22;1444;49.166;7.312;2022-08-01T09:07:43;26.90;76.90
2873;DHT22;1444;49.166;7.312;2022-08-01T09:10:10;26.90;77.10
2873;DHT22;1444;49.166;7.312;2022-08-01T09:12:37;26.80;76.20
2873;DHT22;1444;49.166;7.312;2022-08-01T09:15:04;26.80;76.20
2873;DHT22;1444;49.166;7.312;2022-08-01T09:17:39;26.70;76.20
2873;DHT22;1444;49.166;7.312;2022-08-01T09:20:07;26.60;76.60
2873;DHT22;1444;49.166;7.312;2022-08-01T09:22:34;26.70;77.10
2873;DHT22;1444;49.166;7.312;2022-08-01T09:25:04;26.80;77.20
2873;DHT22;1444;49.166;7.312;2022-08-01T09:27:32;27.10;76.50
2873;DHT22;1444;49.166;7.312;2022-08-01T09:30:11;27.10;77.20
2873;DHT22;1444;49.166;7.312;2022-08-01T09:32:53;27.20;75.70
2873;DHT22;1444;49.166;7.312;2022-08-01T09:35:25;27.30;76.00
2873;DHT22;1444;49.166;7.312;2022-08-01T09:38:11;27.30;75.40
2873;DHT22;1444;49.166;7.312;2022-08-01T09:40:48;27.40;75.60
2873;DHT22;1444;49.166;7.312;2022-08-01T09:43:15;27.50;75.50
2873;DHT22;1444;49.166;7.312;2022-08-01T09:45:41;27.40;74.50
2873;DHT22;1444;49.166;7.312;2022-08-01T09:48:09;27.40;75.00
2873;DHT22;1444;49.166;7.312;2022-08-01T09:50:40;27.50;73.30
2873;DHT22;1444;49.166;7.312;2022-08-01T09:53:08;27.50;73.20
2873;DHT22;1444;49.166;7.312;2022-08-01T09:55:35;27.60;73.90
2873;DHT22;1444;49.166;7.312;2022-08-01T09:58:03;27.60;74.50
2873;DHT22;1444;49.166;7.312;2022-08-01T10:00:30;27.90;73.80
2873;DHT22;1444;49.166;7.312;2022-08-01T10:02:58;28.00;74.30
2873;DHT22;1444;49.166;7.312;2022-08-01T10:05:35;28.10;73.30
2873;DHT22;1444;49.166;7.312;2022-08-01T10:08:03;27.90;72.30
2873;DHT22;1444;49.166;7.312;2022-08-01T10:10:31;27.90;72.10
2873;DHT22;1444;49.166;7.312;2022-08-01T10:12:59;27.90;72.40
2873;DHT22;1444;49.166;7.312;2022-08-01T10:15:27;28.00;71.90
2873;DHT22;1444;49.166;7.312;2022-08-01T10:17:56;27.90;71.60
2873;DHT22;1444;49.166;7.312;2022-08-01T10:20:24;27.80;71.80
2873;DHT22;1444;49.166;7.312;2022-08-01T10:22:53;27.80;71.60
2873;DHT22;1444;49.166;7.312;2022-08-01T10:25:21;27.80;72.60
2873;DHT22;1444;49.166;7.312;2022-08-01T10:27:49;28.10;72.40
2873;DHT22;1444;49.166;7.312;2022-08-01T10:30:17;28.20;73.20
2873;DHT22;1444;49.166;7.312;2022-08-01T10:32:46;28.30;71.90
2873;DHT22;1444;49.166;7.312;2022-08-01T10:35:13;27.90;70.50
2873;DHT22;1444;49.166;7.312;2022-08-01T10:37:43;28.00;72.20
2873;DHT22;1444;49.166;7.312;2022-08-01T10:40:11;28.00;71.80
2873;DHT22;1444;49.166;7.312;2022-08-01T10:42:39;28.00;71.20
2873;DHT22;1444;49.166;7.312;2022-08-01T10:45:07;28.00;71.90
2873;DHT22;1444;49.166;7.312;2022-08-01T10:47:40;28.10;72.20
2873;DHT22;1444;49.166;7.312;2022-08-01T10:50:16;28.00;71.50
2873;DHT22;1444;49.166;7.312;2022-08-01T10:53:09;28.10;72.30
2873;DHT22;1444;49.166;7.312;2022-08-01T10:55:47;28.30;70.90
2873;DHT22;1444;49.166;7.312;2022-08-01T10:58:20;28.60;72.60
2873;DHT22;1444;49.166;7.312;2022-08-01T11:00:47;29.00;70.80
2873;DHT22;1444;49.166;7.312;2022-08-01T11:03:14;29.00;70.20
2873;DHT22;1444;49.166;7.312;2022-08-01T11:05:43;29.10;70.30
2873;DHT22;1444;49.166;7.312;2022-08-01T11:08:21;29.10;69.80
2873;DHT22;1444;49.166;7.312;2022-08-01T11:10:48;29.00;69.20
2873;DHT22;1444;49.166;7.312;2022-08-01T11:13:14;29.00;70.30
2873;DHT22;1444;49.166;7.312;2022-08-01T11:16:25;29.00;68.30
2873;DHT22;1444;49.166;7.312;2022-08-01T11:18:51;29.00;68.40
2873;DHT22;1444;49.166;7.312;2022-08-01T11:21:20;29.20;70.10
2873;DHT22;1444;49.166;7.312;2022-08-01T11:23:51;29.40;68.20
2873;DHT22;1444;49.166;7.312;2022-08-01T11:26:19;29.30;68.30
2873;DHT22;1444;49.166;7.312;2022-08-01T11:29:13;29.20;69.10
2873;DHT22;1444;49.166;7.312;2022-08-01T11:31:40;29.20;68.90
2873;DHT22;1444;49.166;7.312;2022-08-01T11:34:07;29.00;68.90
2873;DHT22;1444;49.166;7.312;2022-08-01T11:36:36;28.90;68.80
2873;DHT22;1444;49.166;7.312;2022-08-01T11:39:16;29.10;69.80
2873;DHT22;1444;49.166;7.312;2022-08-01T11:41:45;29.10;69.00
2873;DHT22;1444;49.166;7.312;2022-08-01T11:44:16;29.10;69.60
2873;DHT22;1444;49.166;7.312;2022-08-01T11:46:52;29.10;69.00
2873;DHT22;1444;49.166;7.312;2022-08-01T11:49:28;29.10;68.90
2873;DHT22;1444;49.166;7.312;2022-08-01T11:52:00;29.00;68.10
2873;DHT22;1444;49.166;7.312;2022-08-01T11:54:28;29.10;68.60
2873;DHT22;1444;49.166;7.312;2022-08-01T11:56:56;29.20;69.30
2873;DHT22;1444;49.166;7.312;2022-08-01T11:59:23;29.40;69.30
2873;DHT22;1444;49.166;7.312;2022-08-01T12:01:50;29.30;68.00
2873;DHT22;1444;49.166;7.312;2022-08-01T12:04:17;29.30;68.50
2873;DHT22;1444;49.166;7.312;2022-08-01T12:06:43;29.10;67.30
2873;DHT22;1444;49.166;7.312;2022-08-01T12:09:20;29.10;67.40
2873;DHT22;1444;49.166;7.312;2022-08-01T12:11:47;29.00;68.40
2873;DHT22;1444;49.166;7.312;2022-08-01T12:14:20;29.00;68.40
2873;DHT22;1444;49.166;7.312;2022-08-01T12:16:54;29.00;69.20
2873;DHT22;1444;49.166;7.312;2022-08-01T12:19:22;29.10;69.10
2873;DHT22;1444;49.166;7.312;2022-08-01T12:22:05;29.00;69.50
2873;DHT22;1444;49.166;7.312;2022-08-01T12:24:35;28.90;67.30
2873;DHT22;1444;49.166;7.312;2022-08-01T12:27:02;28.60;68.20
2873;DHT22;1444;49.166;7.312;2022-08-01T12:29:33;28.60;68.20
2873;DHT22;1444;49.166;7.312;2022-08-01T12:32:00;28.70;69.20
2873;DHT22;1444;49.166;7.312;2022-08-01T12:34:27;28.60;68.20
2873;DHT22;1444;49.166;7.312;2022-08-01T12:36:55;28.60;68.40
2873;DHT22;1444;49.166;7.312;2022-08-01T12:39:28;28.60;68.50
2873;DHT22;1444;49.166;7.312;2022-08-01T12:41:56;28.60;68.10
2873;DHT22;1444;49.166;7.312;2022-08-01T12:44:23;28.50;68.30
2873;DHT22;1444;49.166;7.312;2022-08-01T12:46:50;28.40;68.30
2873;DHT22;1444;49.166;7.312;2022-08-01T12:49:17;28.40;69.30
2873;DHT22;1444;49.166;7.312;2022-08-01T12:51:43;28.50;69.00
2873;DHT22;1444;49.166;7.312;2022-08-01T12:54:10;29.00;69.40
2873;DHT22;1444;49.166;7.312;2022-08-01T12:56:37;29.20;68.40
2873;DHT22;1444;49.166;7.312;2022-08-01T12:59:20;29.50;66.30
2873;DHT22;1444;49.166;7.312;2022-08-01T13:01:48;29.60;67.20
2873;DHT22;1444;49.166;7.312;2022-08-01T13:04:15;29.60;67.60
2873;DHT22;1444;49.166;7.312;2022-08-01T13:06:41;29.60;66.00
2873;DHT22;1444;49.166;7.312;2022-08-01T13:09:09;29.60;66.20
2873;DHT22;1444;49.166;7.312;2022-08-01T13:11:37;29.60;67.10
2873;DHT22;1444;49.166;7.312;2022-08-01T13:14:04;29.60;66.50
2873;DHT22;1444;49.166;7.312;2022-08-01T13:16:32;29.70;67.30
2873;DHT22;1444;49.166;7.312;2022-08-01T13:18:59;29.60;66.60
2873;DHT22;1444;49.166;7.312;2022-08-01T13:21:27;29.60;66.10
2873;DHT22;1444;49.166;7.312;2022-08-01T13:24:02;29.60;66.90
2873;DHT22;1444;49.166;7.312;2022-08-01T13:26:40;29.80;66.90
2873;DHT22;1444;49.166;7.312;2022-08-01T13:29:08;29.60;66.30
2873;DHT22;1444;49.166;7.312;2022-08-01T13:31:38;29.70;67.30
2873;DHT22;1444;49.166;7.312;2022-08-01T13:34:05;30.00;65.60
2873;DHT22;1444;49.166;7.312;2022-08-01T13:36:32;29.90;65.40
2873;DHT22;1444;49.166;7.312;2022-08-01T13:38:59;30.10;65.50
2873;DHT22;1444;49.166;7.312;2022-08-01T13:41:45;30.20;65.40
2873;DHT22;1444;49.166;7.312;2022-08-01T13:44:12;30.30;64.20
2873;DHT22;1444;49.166;7.312;2022-08-01T13:46:41;30.30;65.20
2873;DHT22;1444;49.166;7.312;2022-08-01T13:49:09;30.30;64.80
2873;DHT22;1444;49.166;7.312;2022-08-01T13:51:37;30.10;64.00
2873;DHT22;1444;49.166;7.312;2022-08-01T13:54:04;30.10;63.70
2873;DHT22;1444;49.166;7.312;2022-08-01T13:56:31;30.00;64.20
2873;DHT22;1444;49.166;7.312;2022-08-01T13:58:58;30.00;64.40
2873;DHT22;1444;49.166;7.312;2022-08-01T14:01:25;30.10;65.20
2873;DHT22;1444;49.166;7.312;2022-08-01T14:03:53;30.30;65.00
2873;DHT22;1444;49.166;7.312;2022-08-01T14:06:20;30.50;64.40
2873;DHT22;1444;49.166;7.312;2022-08-01T14:08:48;30.70;64.30
2873;DHT22;1444;49.166;7.312;2022-08-01T14:11:15;30.80;64.00
2873;DHT22;1444;49.166;7.312;2022-08-01T14:16:09;30.50;62.70
2873;DHT22;1444;49.166;7.312;2022-08-01T14:18:35;30.20;63.80
2873;DHT22;1444;49.166;7.312;2022-08-01T14:21:03;29.70;64.30
2873;DHT22;1444;49.166;7.312;2022-08-01T14:23:30;29.60;64.60
2873;DHT22;1444;49.166;7.312;2022-08-01T14:25:57;29.60;65.00
2873;DHT22;1444;49.166;7.312;2022-08-01T14:28:23;29.60;65.10
2873;DHT22;1444;49.166;7.312;2022-08-01T14:30:52;29.70;64.30
2873;DHT22;1444;49.166;7.312;2022-08-01T14:33:21;29.60;64.00
2873;DHT22;1444;49.166;7.312;2022-08-01T14:35:47;29.60;64.90
2873;DHT22;1444;49.166;7.312;2022-08-01T14:38:15;29.50;65.00
2873;DHT22;1444;49.166;7.312;2022-08-01T14:40:42;29.50;65.20
2873;DHT22;1444;49.166;7.312;2022-08-01T14:43:12;29.50;66.20
2873;DHT22;1444;49.166;7.312;2022-08-01T14:45:39;29.50;64.80
2873;DHT22;1444;49.166;7.312;2022-08-01T14:48:05;29.50;65.00
2873;DHT22;1444;49.166;7.312;2022-08-01T14:50:32;29.40;63.90
2873;DHT22;1444;49.166;7.312;2022-08-01T14:52:58;29.10;63.70
2873;DHT22;1444;49.166;7.312;2022-08-01T14:55:27;28.80;64.20
2873;DHT22;1444;49.166;7.312;2022-08-01T14:57:53;28.80;65.20
2873;DHT22;1444;49.166;7.312;2022-08-01T15:00:20;28.80;64.20
2873;DHT22;1444;49.166;7.312;2022-08-01T15:02:47;28.80;63.90
2873;DHT22;1444;49.166;7.312;2022-08-01T15:05:13;29.00;64.50
2873;DHT22;1444;49.166;7.312;2022-08-01T15:07:40;29.10;65.20
2873;DHT22;1444;49.166;7.312;2022-08-01T15:10:07;29.20;65.00
2873;DHT22;1444;49.166;7.312;2022-08-01T15:12:36;29.20;64.10
2873;DHT22;1444;49.166;7.312;2022-08-01T15:15:04;29.10;64.40
2873;DHT22;1444;49.166;7.312;2022-08-01T15:17:31;29.00;63.70
2873;DHT22;1444;49.166;7.312;2022-08-01T15:19:59;28.90;63.40
2873;DHT22;1444;49.166;7.312;2022-08-01T15:22:27;28.70;64.50
2873;DHT22;1444;49.166;7.312;2022-08-01T15:24:56;28.70;64.80
2873;DHT22;1444;49.166;7.312;2022-08-01T15:27:23;28.40;65.50
2873;DHT22;1444;49.166;7.312;2022-08-01T15:29:52;28.30;65.70
2873;DHT22;1444;49.166;7.312;2022-08-01T15:32:20;28.30;66.30
2873;DHT22;1444;49.166;7.312;2022-08-01T15:34:50;28.10;65.70
2873;DHT22;1444;49.166;7.312;2022-08-01T15:37:17;28.20;66.10
2873;DHT22;1444;49.166;7.312;2022-08-01T15:39:44;28.10;65.70
2873;DHT22;1444;49.166;7.312;2022-08-01T15:42:12;28.10;65.80
2873;DHT22;1444;49.166;7.312;2022-08-01T15:47:07;28.00;66.70
2873;DHT22;1444;49.166;7.312;2022-08-01T15:49:35;27.90;66.30
2873;DHT22;1444;49.166;7.312;2022-08-01T15:52:02;28.00;66.50
2873;DHT22;1444;49.166;7.312;2022-08-01T15:56:56;27.80;66.60
2873;DHT22;1444;49.166;7.312;2022-08-01T15:59:23;27.80;66.30
2873;DHT22;1444;49.166;7.312;2022-08-01T16:01:50;27.80;66.80
2873;DHT22;1444;49.166;7.312;2022-08-01T16:04:18;27.70;66.50
2873;DHT22;1444;49.166;7.312;2022-08-01T16:06:45;27.80;67.70
2873;DHT22;1444;49.166;7.312;2022-08-01T16:09:12;28.00;67.90
2873;DHT22;1444;49.166;7.312;2022-08-01T16:11:39;28.10;67.20
2873;DHT22;1444;49.166;7.312;2022-08-01T16:14:06;28.10;67.70
2873;DHT22;1444;49.166;7.312;2022-08-01T16:16:32;28.20;68.60
2873;DHT22;1444;49.166;7.312;2022-08-01T16:18:59;28.20;67.40